Pelham, New York
Current Conditions -  °F | °C
As of 3:51 AM on Thursday 27 Nov 2014 (Local Time) from KLGA Reporting Station
Overcast Overcast  
Wind Chill: 28°   Ceiling: 7000
Heat Index: 36°   Visibility: 10mi
Dew Point: 30°   Wind: 12mph
Humidity: 79%   Direction: 330°NNW
Pressure: 29.92"   Gusts: NA
Location:  40.91°N, 73.81°W
Report Text: KLGA 270851Z 33010KT 10SM SCT045 OVC070 02/M01 A2992 RMK AO2 CIG 047 R22 SW SLP130 T00221011 51024
Loading
Personal Weather Stations






























Interactive Weather Map New forecast layout! Learn more

10-Day Weather Forecast

Advertisements
Track Severe Weather on mobile